sensor_id;sensor_type;location;lat;lon;timestamp;P1;durP1;ratioP1;P2;durP2;ratioP2
25503;SDS011;13410;52.114;5.718;2024-01-07T00:00:01;31.50;;;17.55;;
25503;SDS011;13410;52.114;5.718;2024-01-07T00:02:27;30.23;;;17.48;;
25503;SDS011;13410;52.114;5.718;2024-01-07T00:04:53;34.30;;;18.92;;
25503;SDS011;13410;52.114;5.718;2024-01-07T00:07:18;31.05;;;17.77;;
25503;SDS011;13410;52.114;5.718;2024-01-07T00:09:45;33.78;;;17.15;;
25503;SDS011;13410;52.114;5.718;2024-01-07T00:12:11;32.25;;;17.88;;
25503;SDS011;13410;52.114;5.718;2024-01-07T00:14:37;32.22;;;18.17;;
25503;SDS011;13410;52.114;5.718;2024-01-07T00:17:02;36.25;;;19.00;;
25503;SDS011;13410;52.114;5.718;2024-01-07T00:19:28;36.42;;;20.15;;
25503;SDS011;13410;52.114;5.718;2024-01-07T00:21:56;34.90;;;20.05;;
25503;SDS011;13410;52.114;5.718;2024-01-07T00:24:22;39.95;;;20.20;;
25503;SDS011;13410;52.114;5.718;2024-01-07T00:26:50;39.30;;;20.42;;
25503;SDS011;13410;52.114;5.718;2024-01-07T00:29:16;39.40;;;19.83;;
25503;SDS011;13410;52.114;5.718;2024-01-07T00:31:41;37.92;;;19.48;;
25503;SDS011;13410;52.114;5.718;2024-01-07T00:34:07;47.22;;;23.33;;
25503;SDS011;13410;52.114;5.718;2024-01-07T00:36:33;45.50;;;23.35;;
25503;SDS011;13410;52.114;5.718;2024-01-07T00:38:58;48.13;;;24.20;;
25503;SDS011;13410;52.114;5.718;2024-01-07T00:41:24;47.38;;;23.88;;
25503;SDS011;13410;52.114;5.718;2024-01-07T00:43:50;49.10;;;24.48;;
25503;SDS011;13410;52.114;5.718;2024-01-07T00:46:15;44.58;;;23.20;;
25503;SDS011;13410;52.114;5.718;2024-01-07T00:48:41;44.25;;;23.25;;
25503;SDS011;13410;52.114;5.718;2024-01-07T00:51:06;48.55;;;23.83;;
25503;SDS011;13410;52.114;5.718;2024-01-07T00:53:32;46.33;;;23.73;;
25503;SDS011;13410;52.114;5.718;2024-01-07T00:55:57;49.15;;;23.83;;
25503;SDS011;13410;52.114;5.718;2024-01-07T00:58:23;49.60;;;25.75;;
25503;SDS011;13410;52.114;5.718;2024-01-07T01:00:49;49.45;;;24.77;;
25503;SDS011;13410;52.114;5.718;2024-01-07T01:03:14;42.70;;;22.35;;
25503;SDS011;13410;52.114;5.718;2024-01-07T01:05:40;45.40;;;24.23;;
25503;SDS011;13410;52.114;5.718;2024-01-07T01:08:05;44.08;;;24.00;;
25503;SDS011;13410;52.114;5.718;2024-01-07T01:10:31;48.70;;;25.20;;
25503;SDS011;13410;52.114;5.718;2024-01-07T01:12:57;42.88;;;23.23;;
25503;SDS011;13410;52.114;5.718;2024-01-07T01:15:22;45.55;;;23.80;;
25503;SDS011;13410;52.114;5.718;2024-01-07T01:17:48;46.40;;;24.30;;
25503;SDS011;13410;52.114;5.718;2024-01-07T01:20:14;45.90;;;23.25;;
25503;SDS011;13410;52.114;5.718;2024-01-07T01:22:39;43.42;;;23.17;;
25503;SDS011;13410;52.114;5.718;2024-01-07T01:25:05;42.40;;;23.45;;
25503;SDS011;13410;52.114;5.718;2024-01-07T01:27:31;41.40;;;21.85;;
25503;SDS011;13410;52.114;5.718;2024-01-07T01:29:56;41.75;;;21.90;;
25503;SDS011;13410;52.114;5.718;2024-01-07T01:32:22;46.67;;;23.85;;
25503;SDS011;13410;52.114;5.718;2024-01-07T01:34:47;41.20;;;22.02;;
25503;SDS011;13410;52.114;5.718;2024-01-07T01:37:13;41.38;;;22.25;;
25503;SDS011;13410;52.114;5.718;2024-01-07T01:39:40;40.05;;;21.23;;
25503;SDS011;13410;52.114;5.718;2024-01-07T01:42:06;40.80;;;22.20;;
25503;SDS011;13410;52.114;5.718;2024-01-07T01:44:32;41.42;;;21.42;;
25503;SDS011;13410;52.114;5.718;2024-01-07T01:46:58;40.00;;;21.25;;
25503;SDS011;13410;52.114;5.718;2024-01-07T01:49:25;40.22;;;22.50;;
25503;SDS011;13410;52.114;5.718;2024-01-07T01:51:52;37.10;;;21.05;;
25503;SDS011;13410;52.114;5.718;2024-01-07T01:54:18;43.50;;;23.45;;
25503;SDS011;13410;52.114;5.718;2024-01-07T01:56:45;44.90;;;24.15;;
25503;SDS011;13410;52.114;5.718;2024-01-07T01:59:11;40.03;;;22.27;;
25503;SDS011;13410;52.114;5.718;2024-01-07T02:01:40;39.65;;;22.80;;
25503;SDS011;13410;52.114;5.718;2024-01-07T02:04:06;40.45;;;22.20;;
25503;SDS011;13410;52.114;5.718;2024-01-07T02:06:33;39.13;;;21.55;;
25503;SDS011;13410;52.114;5.718;2024-01-07T02:08:59;42.17;;;22.85;;
25503;SDS011;13410;52.114;5.718;2024-01-07T02:11:25;38.30;;;22.85;;
25503;SDS011;13410;52.114;5.718;2024-01-07T02:13:50;39.95;;;21.73;;
25503;SDS011;13410;52.114;5.718;2024-01-07T02:16:16;41.42;;;22.48;;
25503;SDS011;13410;52.114;5.718;2024-01-07T02:18:43;40.05;;;22.83;;
25503;SDS011;13410;52.114;5.718;2024-01-07T02:21:10;43.30;;;23.48;;
25503;SDS011;13410;52.114;5.718;2024-01-07T02:23:37;41.17;;;20.75;;
25503;SDS011;13410;52.114;5.718;2024-01-07T02:26:03;39.83;;;21.55;;
25503;SDS011;13410;52.114;5.718;2024-01-07T02:28:29;42.45;;;22.77;;
25503;SDS011;13410;52.114;5.718;2024-01-07T02:30:55;41.38;;;21.48;;
25503;SDS011;13410;52.114;5.718;2024-01-07T02:33:21;41.97;;;22.27;;
25503;SDS011;13410;52.114;5.718;2024-01-07T02:35:47;44.45;;;23.20;;
25503;SDS011;13410;52.114;5.718;2024-01-07T02:38:12;41.10;;;21.70;;
25503;SDS011;13410;52.114;5.718;2024-01-07T02:40:38;42.40;;;21.55;;
25503;SDS011;13410;52.114;5.718;2024-01-07T02:43:04;47.42;;;24.05;;
25503;SDS011;13410;52.114;5.718;2024-01-07T02:45:29;45.22;;;22.75;;
25503;SDS011;13410;52.114;5.718;2024-01-07T02:47:55;45.13;;;21.92;;
25503;SDS011;13410;52.114;5.718;2024-01-07T02:50:21;46.38;;;24.40;;
25503;SDS011;13410;52.114;5.718;2024-01-07T02:52:47;42.67;;;22.45;;
25503;SDS011;13410;52.114;5.718;2024-01-07T02:55:13;43.55;;;23.85;;
25503;SDS011;13410;52.114;5.718;2024-01-07T02:57:38;45.10;;;24.17;;
25503;SDS011;13410;52.114;5.718;2024-01-07T03:00:04;46.13;;;23.98;;
25503;SDS011;13410;52.114;5.718;2024-01-07T03:02:31;41.15;;;20.90;;
25503;SDS011;13410;52.114;5.718;2024-01-07T03:04:56;45.40;;;24.08;;
25503;SDS011;13410;52.114;5.718;2024-01-07T03:07:22;44.03;;;22.35;;
25503;SDS011;13410;52.114;5.718;2024-01-07T03:09:48;37.35;;;19.83;;
25503;SDS011;13410;52.114;5.718;2024-01-07T03:12:14;41.33;;;21.98;;
25503;SDS011;13410;52.114;5.718;2024-01-07T03:14:41;41.45;;;22.35;;
25503;SDS011;13410;52.114;5.718;2024-01-07T03:17:06;43.30;;;23.10;;
25503;SDS011;13410;52.114;5.718;2024-01-07T03:19:32;42.45;;;22.05;;
25503;SDS011;13410;52.114;5.718;2024-01-07T03:21:58;42.20;;;22.52;;
25503;SDS011;13410;52.114;5.718;2024-01-07T03:24:23;45.85;;;21.85;;
25503;SDS011;13410;52.114;5.718;2024-01-07T03:26:49;42.80;;;22.10;;
25503;SDS011;13410;52.114;5.718;2024-01-07T03:29:15;41.72;;;23.00;;
25503;SDS011;13410;52.114;5.718;2024-01-07T03:31:40;41.33;;;21.98;;
25503;SDS011;13410;52.114;5.718;2024-01-07T03:34:06;44.85;;;24.13;;
25503;SDS011;13410;52.114;5.718;2024-01-07T03:36:32;46.08;;;23.85;;
25503;SDS011;13410;52.114;5.718;2024-01-07T03:38:57;43.13;;;21.55;;
25503;SDS011;13410;52.114;5.718;2024-01-07T03:41:23;35.60;;;18.02;;
25503;SDS011;13410;52.114;5.718;2024-01-07T03:43:49;39.13;;;20.60;;
25503;SDS011;13410;52.114;5.718;2024-01-07T03:46:15;41.88;;;22.75;;
25503;SDS011;13410;52.114;5.718;2024-01-07T03:48:41;41.40;;;22.20;;
25503;SDS011;13410;52.114;5.718;2024-01-07T03:51:07;41.58;;;22.50;;
25503;SDS011;13410;52.114;5.718;2024-01-07T03:53:33;41.25;;;23.02;;
25503;SDS011;13410;52.114;5.718;2024-01-07T03:55:59;42.78;;;23.50;;
25503;SDS011;13410;52.114;5.718;2024-01-07T03:58:24;40.97;;;22.52;;
25503;SDS011;13410;52.114;5.718;2024-01-07T04:00:50;39.72;;;21.98;;
25503;SDS011;13410;52.114;5.718;2024-01-07T04:03:16;39.92;;;21.95;;
25503;SDS011;13410;52.114;5.718;2024-01-07T04:05:41;29.55;;;15.38;;
25503;SDS011;13410;52.114;5.718;2024-01-07T04:08:10;38.67;;;21.15;;
25503;SDS011;13410;52.114;5.718;2024-01-07T04:10:37;39.35;;;22.33;;
25503;SDS011;13410;52.114;5.718;2024-01-07T04:13:03;36.50;;;20.58;;
25503;SDS011;13410;52.114;5.718;2024-01-07T04:15:29;41.10;;;22.35;;
25503;SDS011;13410;52.114;5.718;2024-01-07T04:17:55;34.95;;;19.77;;
25503;SDS011;13410;52.114;5.718;2024-01-07T04:20:20;32.88;;;18.48;;
25503;SDS011;13410;52.114;5.718;2024-01-07T04:22:46;36.83;;;21.48;;
25503;SDS011;13410;52.114;5.718;2024-01-07T04:25:12;38.30;;;21.50;;
25503;SDS011;13410;52.114;5.718;2024-01-07T04:27:38;35.33;;;19.05;;
25503;SDS011;13410;52.114;5.718;2024-01-07T04:30:04;37.03;;;20.23;;
25503;SDS011;13410;52.114;5.718;2024-01-07T04:32:30;32.30;;;19.05;;
25503;SDS011;13410;52.114;5.718;2024-01-07T04:34:56;32.90;;;18.80;;
25503;SDS011;13410;52.114;5.718;2024-01-07T04:37:22;30.63;;;18.20;;
25503;SDS011;13410;52.114;5.718;2024-01-07T04:39:48;30.52;;;18.20;;
25503;SDS011;13410;52.114;5.718;2024-01-07T04:42:14;32.28;;;18.95;;
25503;SDS011;13410;52.114;5.718;2024-01-07T04:44:40;29.45;;;17.30;;
25503;SDS011;13410;52.114;5.718;2024-01-07T04:47:22;31.27;;;18.25;;
25503;SDS011;13410;52.114;5.718;2024-01-07T04:49:50;29.00;;;17.50;;
25503;SDS011;13410;52.114;5.718;2024-01-07T04:52:15;27.17;;;16.02;;
25503;SDS011;13410;52.114;5.718;2024-01-07T04:54:41;29.60;;;18.23;;
25503;SDS011;13410;52.114;5.718;2024-01-07T04:57:06;30.15;;;17.83;;
25503;SDS011;13410;52.114;5.718;2024-01-07T04:59:32;30.83;;;18.00;;
25503;SDS011;13410;52.114;5.718;2024-01-07T05:01:58;28.23;;;16.95;;
25503;SDS011;13410;52.114;5.718;2024-01-07T05:04:23;30.92;;;17.85;;
25503;SDS011;13410;52.114;5.718;2024-01-07T05:06:49;28.42;;;17.35;;
25503;SDS011;13410;52.114;5.718;2024-01-07T05:09:15;29.40;;;16.95;;
25503;SDS011;13410;52.114;5.718;2024-01-07T05:11:40;29.35;;;17.23;;
25503;SDS011;13410;52.114;5.718;2024-01-07T05:14:06;27.27;;;17.30;;
25503;SDS011;13410;52.114;5.718;2024-01-07T05:16:31;27.00;;;17.05;;
25503;SDS011;13410;52.114;5.718;2024-01-07T05:18:57;29.17;;;17.33;;
25503;SDS011;13410;52.114;5.718;2024-01-07T05:21:23;27.80;;;16.35;;
25503;SDS011;13410;52.114;5.718;2024-01-07T05:23:48;25.80;;;15.68;;
25503;SDS011;13410;52.114;5.718;2024-01-07T05:26:14;26.95;;;16.50;;
25503;SDS011;13410;52.114;5.718;2024-01-07T05:28:40;26.08;;;16.55;;
25503;SDS011;13410;52.114;5.718;2024-01-07T05:31:13;26.60;;;15.73;;
25503;SDS011;13410;52.114;5.718;2024-01-07T05:33:40;20.67;;;13.18;;
25503;SDS011;13410;52.114;5.718;2024-01-07T05:36:05;25.23;;;15.45;;
25503;SDS011;13410;52.114;5.718;2024-01-07T05:38:31;24.40;;;15.48;;
25503;SDS011;13410;52.114;5.718;2024-01-07T05:40:56;24.95;;;16.13;;
25503;SDS011;13410;52.114;5.718;2024-01-07T05:43:22;24.52;;;14.75;;
25503;SDS011;13410;52.114;5.718;2024-01-07T05:45:48;22.58;;;14.98;;
25503;SDS011;13410;52.114;5.718;2024-01-07T05:48:13;24.73;;;14.77;;
25503;SDS011;13410;52.114;5.718;2024-01-07T05:50:39;23.08;;;14.65;;
25503;SDS011;13410;52.114;5.718;2024-01-07T05:53:04;23.60;;;14.77;;
25503;SDS011;13410;52.114;5.718;2024-01-07T05:55:30;24.00;;;15.48;;
25503;SDS011;13410;52.114;5.718;2024-01-07T05:57:56;23.45;;;14.85;;
25503;SDS011;13410;52.114;5.718;2024-01-07T06:00:21;23.58;;;15.63;;
25503;SDS011;13410;52.114;5.718;2024-01-07T06:02:48;24.95;;;15.52;;
25503;SDS011;13410;52.114;5.718;2024-01-07T06:05:13;22.92;;;15.05;;
25503;SDS011;13410;52.114;5.718;2024-01-07T06:07:39;24.92;;;15.77;;
25503;SDS011;13410;52.114;5.718;2024-01-07T06:10:05;23.33;;;15.18;;
25503;SDS011;13410;52.114;5.718;2024-01-07T06:12:31;25.15;;;15.65;;
25503;SDS011;13410;52.114;5.718;2024-01-07T06:14:57;24.58;;;15.02;;
25503;SDS011;13410;52.114;5.718;2024-01-07T06:17:22;22.80;;;14.02;;
25503;SDS011;13410;52.114;5.718;2024-01-07T06:19:48;21.75;;;14.32;;
25503;SDS011;13410;52.114;5.718;2024-01-07T06:22:14;23.45;;;15.70;;
25503;SDS011;13410;52.114;5.718;2024-01-07T06:24:40;24.92;;;15.10;;
25503;SDS011;13410;52.114;5.718;2024-01-07T06:27:05;26.42;;;15.30;;
25503;SDS011;13410;52.114;5.718;2024-01-07T06:29:31;22.00;;;15.05;;
25503;SDS011;13410;52.114;5.718;2024-01-07T06:31:57;21.80;;;14.35;;
25503;SDS011;13410;52.114;5.718;2024-01-07T06:34:22;23.50;;;14.60;;
25503;SDS011;13410;52.114;5.718;2024-01-07T06:36:48;23.55;;;15.82;;
25503;SDS011;13410;52.114;5.718;2024-01-07T06:39:13;22.17;;;14.27;;
25503;SDS011;13410;52.114;5.718;2024-01-07T06:41:39;21.90;;;13.77;;
25503;SDS011;13410;52.114;5.718;2024-01-07T06:44:05;24.05;;;15.73;;
25503;SDS011;13410;52.114;5.718;2024-01-07T06:46:30;24.85;;;15.60;;
25503;SDS011;13410;52.114;5.718;2024-01-07T06:48:56;24.38;;;15.70;;
25503;SDS011;13410;52.114;5.718;2024-01-07T06:51:21;27.08;;;15.45;;
25503;SDS011;13410;52.114;5.718;2024-01-07T06:53:47;23.70;;;13.70;;
25503;SDS011;13410;52.114;5.718;2024-01-07T06:56:14;22.75;;;15.52;;
25503;SDS011;13410;52.114;5.718;2024-01-07T06:58:40;23.05;;;14.95;;
25503;SDS011;13410;52.114;5.718;2024-01-07T07:01:08;24.02;;;15.52;;
25503;SDS011;13410;52.114;5.718;2024-01-07T07:03:35;27.48;;;16.15;;
25503;SDS011;13410;52.114;5.718;2024-01-07T07:06:00;26.75;;;16.58;;
25503;SDS011;13410;52.114;5.718;2024-01-07T07:08:26;30.10;;;17.55;;
25503;SDS011;13410;52.114;5.718;2024-01-07T07:10:51;27.15;;;16.88;;
25503;SDS011;13410;52.114;5.718;2024-01-07T07:13:18;25.45;;;15.88;;
25503;SDS011;13410;52.114;5.718;2024-01-07T07:15:43;25.45;;;16.70;;
25503;SDS011;13410;52.114;5.718;2024-01-07T07:18:09;25.63;;;15.80;;
25503;SDS011;13410;52.114;5.718;2024-01-07T07:20:34;28.92;;;16.80;;
25503;SDS011;13410;52.114;5.718;2024-01-07T07:23:00;27.50;;;14.95;;
25503;SDS011;13410;52.114;5.718;2024-01-07T07:25:26;26.55;;;16.05;;
25503;SDS011;13410;52.114;5.718;2024-01-07T07:27:51;28.17;;;17.15;;
25503;SDS011;13410;52.114;5.718;2024-01-07T07:30:17;26.88;;;16.40;;
25503;SDS011;13410;52.114;5.718;2024-01-07T07:32:43;25.23;;;15.10;;
25503;SDS011;13410;52.114;5.718;2024-01-07T07:35:09;20.95;;;13.75;;
25503;SDS011;13410;52.114;5.718;2024-01-07T07:37:35;22.50;;;14.55;;
25503;SDS011;13410;52.114;5.718;2024-01-07T07:40:00;19.65;;;12.98;;
25503;SDS011;13410;52.114;5.718;2024-01-07T07:42:26;17.35;;;11.13;;
25503;SDS011;13410;52.114;5.718;2024-01-07T07:44:52;20.75;;;13.23;;
25503;SDS011;13410;52.114;5.718;2024-01-07T07:47:18;18.58;;;12.32;;
25503;SDS011;13410;52.114;5.718;2024-01-07T07:49:43;17.67;;;12.23;;
25503;SDS011;13410;52.114;5.718;2024-01-07T07:52:09;18.48;;;11.70;;
25503;SDS011;13410;52.114;5.718;2024-01-07T07:54:38;16.55;;;11.05;;
25503;SDS011;13410;52.114;5.718;2024-01-07T07:57:04;18.75;;;12.73;;
25503;SDS011;13410;52.114;5.718;2024-01-07T07:59:30;18.20;;;12.52;;
25503;SDS011;13410;52.114;5.718;2024-01-07T08:01:56;17.65;;;12.15;;
25503;SDS011;13410;52.114;5.718;2024-01-07T08:04:22;19.08;;;13.20;;
25503;SDS011;13410;52.114;5.718;2024-01-07T08:06:47;17.10;;;12.32;;
25503;SDS011;13410;52.114;5.718;2024-01-07T08:09:13;16.58;;;11.32;;
25503;SDS011;13410;52.114;5.718;2024-01-07T08:11:39;16.42;;;10.02;;
25503;SDS011;13410;52.114;5.718;2024-01-07T08:14:04;16.38;;;11.45;;
25503;SDS011;13410;52.114;5.718;2024-01-07T08:16:31;17.45;;;12.18;;
25503;SDS011;13410;52.114;5.718;2024-01-07T08:18:56;17.83;;;12.27;;
25503;SDS011;13410;52.114;5.718;2024-01-07T08:21:22;17.08;;;11.35;;
25503;SDS011;13410;52.114;5.718;2024-01-07T08:23:48;17.77;;;11.65;;
25503;SDS011;13410;52.114;5.718;2024-01-07T08:26:20;14.93;;;11.02;;
25503;SDS011;13410;52.114;5.718;2024-01-07T08:28:48;16.83;;;10.27;;
25503;SDS011;13410;52.114;5.718;2024-01-07T08:31:13;15.85;;;10.32;;
25503;SDS011;13410;52.114;5.718;2024-01-07T08:33:39;15.68;;;11.35;;
25503;SDS011;13410;52.114;5.718;2024-01-07T08:36:05;16.17;;;11.02;;
25503;SDS011;13410;52.114;5.718;2024-01-07T08:38:30;17.38;;;11.10;;
25503;SDS011;13410;52.114;5.718;2024-01-07T08:40:56;20.23;;;10.23;;
25503;SDS011;13410;52.114;5.718;2024-01-07T08:43:22;17.00;;;10.95;;
25503;SDS011;13410;52.114;5.718;2024-01-07T08:45:47;16.25;;;10.73;;
25503;SDS011;13410;52.114;5.718;2024-01-07T08:48:14;15.98;;;10.25;;
25503;SDS011;13410;52.114;5.718;2024-01-07T08:50:39;18.38;;;9.15;;
25503;SDS011;13410;52.114;5.718;2024-01-07T08:53:05;15.85;;;9.80;;
25503;SDS011;13410;52.114;5.718;2024-01-07T08:55:31;14.77;;;9.25;;
25503;SDS011;13410;52.114;5.718;2024-01-07T08:57:56;15.77;;;10.20;;
25503;SDS011;13410;52.114;5.718;2024-01-07T09:00:22;15.93;;;10.13;;
25503;SDS011;13410;52.114;5.718;2024-01-07T09:02:52;14.77;;;9.88;;
25503;SDS011;13410;52.114;5.718;2024-01-07T09:05:19;17.50;;;10.07;;
25503;SDS011;13410;52.114;5.718;2024-01-07T09:07:45;17.17;;;10.73;;
25503;SDS011;13410;52.114;5.718;2024-01-07T09:10:11;15.15;;;9.65;;
25503;SDS011;13410;52.114;5.718;2024-01-07T09:12:40;15.18;;;9.52;;
25503;SDS011;13410;52.114;5.718;2024-01-07T09:15:06;14.07;;;8.65;;
25503;SDS011;13410;52.114;5.718;2024-01-07T09:17:36;18.85;;;10.25;;
25503;SDS011;13410;52.114;5.718;2024-01-07T09:20:06;13.32;;;9.32;;
25503;SDS011;13410;52.114;5.718;2024-01-07T09:22:33;16.88;;;9.05;;
25503;SDS011;13410;52.114;5.718;2024-01-07T09:25:00;16.80;;;8.38;;
25503;SDS011;13410;52.114;5.718;2024-01-07T09:27:28;13.30;;;8.50;;
25503;SDS011;13410;52.114;5.718;2024-01-07T09:29:55;14.65;;;8.63;;
25503;SDS011;13410;52.114;5.718;2024-01-07T09:32:20;13.85;;;8.85;;
25503;SDS011;13410;52.114;5.718;2024-01-07T09:34:46;14.82;;;9.18;;
25503;SDS011;13410;52.114;5.718;2024-01-07T09:37:13;13.55;;;8.40;;
25503;SDS011;13410;52.114;5.718;2024-01-07T09:39:40;14.10;;;8.88;;
25503;SDS011;13410;52.114;5.718;2024-01-07T09:42:18;12.38;;;7.68;;
25503;SDS011;13410;52.114;5.718;2024-01-07T09:44:44;13.40;;;8.38;;
25503;SDS011;13410;52.114;5.718;2024-01-07T09:47:10;12.07;;;7.75;;
25503;SDS011;13410;52.114;5.718;2024-01-07T09:49:43;15.05;;;8.40;;
25503;SDS011;13410;52.114;5.718;2024-01-07T09:52:10;14.15;;;7.97;;
25503;SDS011;13410;52.114;5.718;2024-01-07T09:54:37;11.68;;;6.95;;
25503;SDS011;13410;52.114;5.718;2024-01-07T09:57:04;18.27;;;7.75;;
25503;SDS011;13410;52.114;5.718;2024-01-07T09:59:34;11.98;;;7.20;;
25503;SDS011;13410;52.114;5.718;2024-01-07T10:02:01;11.30;;;7.45;;
25503;SDS011;13410;52.114;5.718;2024-01-07T10:04:27;9.13;;;5.20;;
25503;SDS011;13410;52.114;5.718;2024-01-07T10:06:53;8.63;;;5.55;;
25503;SDS011;13410;52.114;5.718;2024-01-07T10:09:19;12.35;;;6.53;;
25503;SDS011;13410;52.114;5.718;2024-01-07T10:11:51;11.57;;;7.22;;
25503;SDS011;13410;52.114;5.718;2024-01-07T10:14:18;10.25;;;6.88;;
25503;SDS011;13410;52.114;5.718;2024-01-07T10:16:47;12.52;;;6.30;;
25503;SDS011;13410;52.114;5.718;2024-01-07T10:19:17;9.73;;;5.70;;
25503;SDS011;13410;52.114;5.718;2024-01-07T10:21:49;10.38;;;5.30;;
25503;SDS011;13410;52.114;5.718;2024-01-07T10:24:31;8.57;;;5.63;;
25503;SDS011;13410;52.114;5.718;2024-01-07T10:27:02;8.35;;;5.05;;
25503;SDS011;13410;52.114;5.718;2024-01-07T10:29:28;9.45;;;5.78;;
25503;SDS011;13410;52.114;5.718;2024-01-07T10:31:57;10.38;;;5.32;;
25503;SDS011;13410;52.114;5.718;2024-01-07T10:34:24;10.35;;;5.85;;
25503;SDS011;13410;52.114;5.718;2024-01-07T10:36:53;18.30;;;9.52;;
25503;SDS011;13410;52.114;5.718;2024-01-07T10:39:21;8.20;;;5.38;;
25503;SDS011;13410;52.114;5.718;2024-01-07T10:41:47;14.10;;;7.55;;
25503;SDS011;13410;52.114;5.718;2024-01-07T10:44:13;10.35;;;6.88;;
25503;SDS011;13410;52.114;5.718;2024-01-07T10:46:39;9.32;;;6.45;;
25503;SDS011;13410;52.114;5.718;2024-01-07T10:49:12;14.55;;;7.75;;
25503;SDS011;13410;52.114;5.718;2024-01-07T10:51:49;9.07;;;5.60;;
25503;SDS011;13410;52.114;5.718;2024-01-07T10:54:30;7.93;;;4.70;;
25503;SDS011;13410;52.114;5.718;2024-01-07T10:56:58;6.53;;;4.25;;
25503;SDS011;13410;52.114;5.718;2024-01-07T10:59:37;8.80;;;3.88;;
25503;SDS011;13410;52.114;5.718;2024-01-07T11:02:03;9.85;;;4.75;;
25503;SDS011;13410;52.114;5.718;2024-01-07T11:10:16;7.65;;;3.65;;
25503;SDS011;13410;52.114;5.718;2024-01-07T11:12:54;7.93;;;4.57;;
25503;SDS011;13410;52.114;5.718;2024-01-07T11:18:22;7.10;;;4.25;;
25503;SDS011;13410;52.114;5.718;2024-01-07T11:20:48;8.07;;;3.83;;
25503;SDS011;13410;52.114;5.718;2024-01-07T11:23:27;5.40;;;3.83;;
25503;SDS011;13410;52.114;5.718;2024-01-07T11:25:57;5.15;;;3.35;;
25503;SDS011;13410;52.114;5.718;2024-01-07T11:34:04;4.75;;;3.17;;
25503;SDS011;13410;52.114;5.718;2024-01-07T11:36:30;5.15;;;2.50;;
25503;SDS011;13410;52.114;5.718;2024-01-07T11:38:56;5.65;;;2.60;;
25503;SDS011;13410;52.114;5.718;2024-01-07T11:41:22;6.68;;;3.15;;
25503;SDS011;13410;52.114;5.718;2024-01-07T11:43:57;5.82;;;2.92;;
25503;SDS011;13410;52.114;5.718;2024-01-07T11:46:28;5.53;;;2.72;;
25503;SDS011;13410;52.114;5.718;2024-01-07T11:48:58;7.25;;;2.78;;
25503;SDS011;13410;52.114;5.718;2024-01-07T11:51:27;4.47;;;2.83;;
25503;SDS011;13410;52.114;5.718;2024-01-07T11:53:55;9.38;;;3.83;;
25503;SDS011;13410;52.114;5.718;2024-01-07T11:56:24;4.68;;;2.80;;
25503;SDS011;13410;52.114;5.718;2024-01-07T11:58:51;5.00;;;2.80;;
25503;SDS011;13410;52.114;5.718;2024-01-07T12:01:17;4.82;;;3.17;;
25503;SDS011;13410;52.114;5.718;2024-01-07T12:03:44;5.80;;;3.38;;
25503;SDS011;13410;52.114;5.718;2024-01-07T12:06:10;6.68;;;3.30;;
25503;SDS011;13410;52.114;5.718;2024-01-07T12:08:42;4.95;;;2.38;;
25503;SDS011;13410;52.114;5.718;2024-01-07T12:11:09;6.30;;;2.53;;
25503;SDS011;13410;52.114;5.718;2024-01-07T12:13:37;4.60;;;2.33;;
25503;SDS011;13410;52.114;5.718;2024-01-07T12:16:04;4.90;;;2.25;;
25503;SDS011;13410;52.114;5.718;2024-01-07T12:18:30;4.30;;;2.30;;
25503;SDS011;13410;52.114;5.718;2024-01-07T12:20:57;4.72;;;2.40;;
25503;SDS011;13410;52.114;5.718;2024-01-07T12:23:23;4.00;;;2.40;;
25503;SDS011;13410;52.114;5.718;2024-01-07T12:25:51;4.38;;;2.55;;
25503;SDS011;13410;52.114;5.718;2024-01-07T12:28:22;4.30;;;2.30;;
25503;SDS011;13410;52.114;5.718;2024-01-07T12:30:48;5.95;;;2.72;;
25503;SDS011;13410;52.114;5.718;2024-01-07T12:33:18;3.85;;;2.35;;
25503;SDS011;13410;52.114;5.718;2024-01-07T12:35:47;4.82;;;2.28;;
25503;SDS011;13410;52.114;5.718;2024-01-07T12:38:13;4.03;;;2.20;;
25503;SDS011;13410;52.114;5.718;2024-01-07T12:40:39;3.55;;;2.10;;
25503;SDS011;13410;52.114;5.718;2024-01-07T12:43:05;5.18;;;2.30;;
25503;SDS011;13410;52.114;5.718;2024-01-07T12:45:32;4.03;;;1.90;;
25503;SDS011;13410;52.114;5.718;2024-01-07T12:47:58;2.83;;;1.85;;
25503;SDS011;13410;52.114;5.718;2024-01-07T12:50:27;3.42;;;1.73;;
25503;SDS011;13410;52.114;5.718;2024-01-07T12:52:55;3.47;;;1.90;;
25503;SDS011;13410;52.114;5.718;2024-01-07T12:55:21;3.42;;;2.17;;
25503;SDS011;13410;52.114;5.718;2024-01-07T12:57:47;2.88;;;1.85;;
25503;SDS011;13410;52.114;5.718;2024-01-07T13:00:13;3.15;;;2.10;;
25503;SDS011;13410;52.114;5.718;2024-01-07T13:02:39;3.97;;;1.98;;
25503;SDS011;13410;52.114;5.718;2024-01-07T13:05:05;2.75;;;1.70;;
25503;SDS011;13410;52.114;5.718;2024-01-07T13:07:31;4.47;;;2.80;;
25503;SDS011;13410;52.114;5.718;2024-01-07T13:09:57;5.70;;;2.42;;
25503;SDS011;13410;52.114;5.718;2024-01-07T13:12:23;1.92;;;1.33;;
25503;SDS011;13410;52.114;5.718;2024-01-07T13:14:48;4.75;;;2.20;;
25503;SDS011;13410;52.114;5.718;2024-01-07T13:17:14;7.88;;;3.13;;
25503;SDS011;13410;52.114;5.718;2024-01-07T13:19:40;3.97;;;2.20;;
25503;SDS011;13410;52.114;5.718;2024-01-07T13:22:06;2.83;;;1.90;;
25503;SDS011;13410;52.114;5.718;2024-01-07T13:24:32;3.55;;;1.60;;
25503;SDS011;13410;52.114;5.718;2024-01-07T13:27:01;3.05;;;2.13;;
25503;SDS011;13410;52.114;5.718;2024-01-07T13:29:26;3.95;;;1.88;;
25503;SDS011;13410;52.114;5.718;2024-01-07T13:31:52;5.40;;;1.83;;
25503;SDS011;13410;52.114;5.718;2024-01-07T13:34:17;3.88;;;1.67;;
25503;SDS011;13410;52.114;5.718;2024-01-07T13:36:43;2.60;;;1.65;;
25503;SDS011;13410;52.114;5.718;2024-01-07T13:39:09;2.53;;;1.50;;
25503;SDS011;13410;52.114;5.718;2024-01-07T13:41:35;4.00;;;1.50;;
25503;SDS011;13410;52.114;5.718;2024-01-07T13:44:01;3.20;;;1.80;;
25503;SDS011;13410;52.114;5.718;2024-01-07T13:46:28;4.38;;;1.48;;
25503;SDS011;13410;52.114;5.718;2024-01-07T13:48:53;3.08;;;1.58;;
25503;SDS011;13410;52.114;5.718;2024-01-07T13:51:19;2.72;;;1.50;;
25503;SDS011;13410;52.114;5.718;2024-01-07T13:53:46;3.67;;;1.80;;
25503;SDS011;13410;52.114;5.718;2024-01-07T13:56:12;3.40;;;2.10;;
25503;SDS011;13410;52.114;5.718;2024-01-07T13:58:38;3.28;;;1.80;;
25503;SDS011;13410;52.114;5.718;2024-01-07T14:01:04;4.03;;;2.10;;
25503;SDS011;13410;52.114;5.718;2024-01-07T14:03:36;2.97;;;1.60;;
25503;SDS011;13410;52.114;5.718;2024-01-07T14:06:01;3.50;;;2.47;;
25503;SDS011;13410;52.114;5.718;2024-01-07T14:08:28;2.25;;;1.55;;
25503;SDS011;13410;52.114;5.718;2024-01-07T14:10:53;3.50;;;1.70;;
25503;SDS011;13410;52.114;5.718;2024-01-07T14:13:19;2.33;;;1.60;;
25503;SDS011;13410;52.114;5.718;2024-01-07T14:15:45;2.78;;;1.70;;
25503;SDS011;13410;52.114;5.718;2024-01-07T14:18:10;5.03;;;2.85;;
25503;SDS011;13410;52.114;5.718;2024-01-07T14:20:40;6.13;;;3.43;;
25503;SDS011;13410;52.114;5.718;2024-01-07T14:23:07;10.18;;;6.75;;
25503;SDS011;13410;52.114;5.718;2024-01-07T14:25:32;4.05;;;2.90;;
25503;SDS011;13410;52.114;5.718;2024-01-07T14:27:58;5.47;;;2.45;;
25503;SDS011;13410;52.114;5.718;2024-01-07T14:30:23;6.57;;;3.33;;
25503;SDS011;13410;52.114;5.718;2024-01-07T14:32:49;4.13;;;2.58;;
25503;SDS011;13410;52.114;5.718;2024-01-07T14:35:15;3.05;;;2.33;;
25503;SDS011;13410;52.114;5.718;2024-01-07T14:37:41;7.32;;;3.35;;
25503;SDS011;13410;52.114;5.718;2024-01-07T14:40:07;6.57;;;2.72;;